Etusivu
METAR-TAF:

METAR-TAF

Lentoasemat :

Ørsta-Volda, Norja

Ørsta-Voldan lentoasema

Leveyspiiri: 62-11N, Pituuspiiri: 006-04E, korkeus merenpinnasta: 7 m

Tämänhetkinen sää

Tämä raportti tehtiin 1 tunti ja 3 minuuttia sitten, kello 19.50 UTC
Tuuli 3 kn eri suunnista
Lämpötila 17°C
Kosteus 63%
Ilmanpaine 1018 hPa
Näkyvyys 10 km tai enemmän
Hajonneita pilviä 4200 ft:n korkeudessa

METAR: ENOV 261950Z VRB03KT 9999 BKN042 17/10 Q1018 RMK WIND 2175FT 14020KT

Aika: 22:53 (20:53 UTC)


TAF: puuttuu

Säähavainnot ja -ennusteet yli 4000 lentoasemalta (METAR- ja TAF-raportit).

Käytössä olevat sääasemat on merkitty karttaan keltaisilla ja punaisilla pisteillä.

Aseta hiiri pisteen päälle nähdäksesi sääaseman nimen.

Klikkaa sitten nähdäksesi säähavainnot ja -ennusteet.

Kartan vaihtaminen: klikkaa mustalla rastilla varustettuja vihreitä pisteitä, niin voit zoomata sisään; viivalla varustettua vihreää pistettä, niin voit zoomata ulos tai vihreitä nuolia, niin pääset viereisille kartoille.


METAR-TAF: